createdAt,value
2017-07-04T00:00:07.165Z,0
2017-07-04T00:01:06.641Z,0
2017-07-04T00:02:06.454Z,0
2017-07-04T00:03:06.092Z,0
2017-07-04T00:04:06.745Z,0
2017-07-04T00:05:07.552Z,0
2017-07-04T00:06:06.902Z,0
2017-07-04T00:07:06.078Z,0
2017-07-04T00:08:06.081Z,0
2017-07-04T00:09:06.686Z,0
2017-07-04T00:10:07.190Z,0
2017-07-04T00:11:06.811Z,0
2017-07-04T00:12:07.384Z,0
2017-07-04T00:13:06.387Z,0
2017-07-04T00:14:06.393Z,0
2017-07-04T00:15:06.759Z,0
2017-07-04T00:16:07.427Z,0
2017-07-04T00:17:07.213Z,0
2017-07-04T00:18:06.739Z,0
2017-07-04T00:19:06.042Z,0
2017-07-04T00:20:06.031Z,0
2017-07-04T00:21:06.704Z,0
2017-07-04T00:22:06.726Z,0
2017-07-04T00:23:06.676Z,0
2017-07-04T00:24:07.012Z,0
2017-07-04T00:25:07.452Z,0
2017-07-04T00:26:07.456Z,0
2017-07-04T00:27:06.179Z,0
2017-07-04T00:28:06.666Z,0
2017-07-04T00:29:06.694Z,0
2017-07-04T00:30:06.010Z,0
2017-07-04T00:31:06.318Z,0
2017-07-04T00:32:06.411Z,0
2017-07-04T00:33:06.384Z,0
2017-07-04T00:34:06.340Z,0
2017-07-04T00:35:06.309Z,0
2017-07-04T00:36:06.341Z,0
2017-07-04T00:37:06.663Z,0
2017-07-04T00:38:06.662Z,0
2017-07-04T00:39:06.651Z,0
2017-07-04T00:40:07.254Z,0
2017-07-04T00:41:06.648Z,0
2017-07-04T00:42:06.327Z,0
2017-07-04T00:43:06.940Z,0
2017-07-04T00:44:06.298Z,0
2017-07-04T00:45:06.269Z,0
2017-07-04T00:46:06.272Z,0
2017-07-04T00:47:05.939Z,0
2017-07-04T00:48:06.272Z,0
2017-07-04T00:49:06.617Z,0
2017-07-04T00:50:06.272Z,0
2017-07-04T00:51:06.249Z,0
2017-07-04T00:52:06.591Z,0
2017-07-04T00:53:06.582Z,0
2017-07-04T00:54:06.244Z,0
2017-07-04T00:55:06.258Z,0
2017-07-04T00:56:06.243Z,0
2017-07-04T00:57:06.563Z,0
2017-07-04T00:58:06.234Z,0
2017-07-04T00:59:06.244Z,0
2017-07-04T01:00:06.218Z,0
2017-07-04T01:01:06.211Z,0
2017-07-04T01:02:06.214Z,0
2017-07-04T01:03:06.870Z,0
2017-07-04T01:04:06.528Z,0
2017-07-04T01:05:06.216Z,0
2017-07-04T01:06:06.230Z,0
2017-07-04T01:07:06.190Z,0
2017-07-04T01:08:06.515Z,0
2017-07-04T01:09:06.198Z,0
2017-07-04T01:10:06.185Z,0
2017-07-04T01:11:06.200Z,0
2017-07-04T01:12:06.185Z,0
2017-07-04T01:13:06.189Z,0
2017-07-04T01:14:06.227Z,0
2017-07-04T01:15:06.174Z,0
2017-07-04T01:16:06.815Z,0
2017-07-04T01:17:06.165Z,0
2017-07-04T01:18:05.842Z,0
2017-07-04T01:19:05.836Z,0
2017-07-04T01:20:06.147Z,0
2017-07-04T01:21:05.810Z,0
2017-07-04T01:22:05.805Z,0
2017-07-04T01:23:06.139Z,0
2017-07-04T01:24:06.191Z,0
2017-07-04T01:25:05.796Z,0
2017-07-04T01:26:06.140Z,0
2017-07-04T01:27:06.118Z,0
2017-07-04T01:28:06.788Z,0
2017-07-04T01:29:06.126Z,0
2017-07-04T01:30:06.120Z,0
2017-07-04T01:31:06.432Z,0
2017-07-04T01:32:06.120Z,0
2017-07-04T01:33:06.753Z,0
2017-07-04T01:34:06.829Z,0
2017-07-04T01:35:06.086Z,0
2017-07-04T01:36:06.079Z,0
2017-07-04T01:37:06.408Z,0
2017-07-04T01:38:06.408Z,0
2017-07-04T01:39:06.101Z,0
2017-07-04T01:40:07.086Z,0
2017-07-04T01:41:06.085Z,0
2017-07-04T01:42:06.725Z,0
2017-07-04T01:43:06.071Z,0
2017-07-04T01:44:06.067Z,0
2017-07-04T01:45:06.411Z,0
2017-07-04T01:46:06.044Z,0
2017-07-04T01:47:06.071Z,0
2017-07-04T01:48:06.034Z,0
2017-07-04T01:49:06.034Z,0
2017-07-04T01:50:06.369Z,0
2017-07-04T01:51:05.695Z,0
2017-07-04T01:52:06.022Z,0
2017-07-04T01:53:06.342Z,0
2017-07-04T01:54:06.011Z,0
2017-07-04T01:55:06.357Z,0
2017-07-04T01:56:06.338Z,0
2017-07-04T01:57:05.675Z,0
2017-07-04T01:58:06.030Z,0
2017-07-04T01:59:05.994Z,0
2017-07-04T02:00:06.650Z,0
2017-07-04T02:01:06.324Z,0
2017-07-04T02:02:06.007Z,0
2017-07-04T02:03:05.978Z,0
2017-07-04T02:04:05.976Z,0
2017-07-04T02:05:06.329Z,0
2017-07-04T02:06:06.300Z,0
2017-07-04T02:07:06.294Z,0
2017-07-04T02:08:06.342Z,0
2017-07-04T02:09:06.307Z,0
2017-07-04T02:10:06.309Z,0
2017-07-04T02:11:06.306Z,0
2017-07-04T02:12:05.617Z,0
2017-07-04T02:13:05.614Z,0
2017-07-04T02:14:06.281Z,0
2017-07-04T02:15:05.933Z,0
2017-07-04T02:16:06.255Z,0
2017-07-04T02:17:06.298Z,0
2017-07-04T02:18:06.254Z,0
2017-07-04T02:19:06.579Z,0
2017-07-04T02:20:06.247Z,0
2017-07-04T02:21:05.947Z,0
2017-07-04T02:22:06.261Z,0
2017-07-04T02:23:05.917Z,0
2017-07-04T02:24:06.237Z,0
2017-07-04T02:25:06.238Z,0
2017-07-04T02:26:06.217Z,0
2017-07-04T02:27:05.893Z,0
2017-07-04T02:28:06.210Z,0
2017-07-04T02:29:06.208Z,0
2017-07-04T02:30:05.559Z,0
2017-07-04T02:31:05.878Z,0
2017-07-04T02:32:05.540Z,0
2017-07-04T02:33:05.865Z,0
2017-07-04T02:34:06.206Z,0
2017-07-04T02:35:05.851Z,0
2017-07-04T02:36:05.848Z,0
2017-07-04T02:37:05.863Z,0
2017-07-04T02:38:06.170Z,0
2017-07-04T02:39:05.837Z,0
2017-07-04T02:40:06.182Z,0
2017-07-04T02:41:06.170Z,0
2017-07-04T02:42:06.151Z,0
2017-07-04T02:43:05.832Z,0
2017-07-04T02:44:05.488Z,0
2017-07-04T02:45:06.155Z,0
2017-07-04T02:46:05.482Z,0
2017-07-04T02:47:05.501Z,0
2017-07-04T02:48:06.468Z,0
2017-07-04T02:49:06.491Z,0
2017-07-04T02:50:05.807Z,0
2017-07-04T02:51:05.895Z,0
2017-07-04T02:52:06.457Z,0
2017-07-04T02:53:06.108Z,0
2017-07-04T02:54:06.101Z,0
2017-07-04T02:55:05.770Z,0
2017-07-04T02:56:06.102Z,0
2017-07-04T02:57:05.450Z,0
2017-07-04T02:58:05.444Z,0
2017-07-04T02:59:06.013Z,0
2017-07-04T03:00:06.112Z,0
2017-07-04T03:01:05.794Z,0
2017-07-04T03:02:06.073Z,5
2017-07-04T03:03:05.738Z,5
2017-07-04T03:04:06.072Z,5
2017-07-04T03:05:06.094Z,5
2017-07-04T03:06:06.723Z,5
2017-07-04T03:07:05.727Z,5
2017-07-04T03:08:06.043Z,5
2017-07-04T03:09:05.706Z,5
2017-07-04T03:10:05.709Z,5
2017-07-04T03:11:06.039Z,5
2017-07-04T03:12:06.068Z,5
2017-07-04T03:13:05.709Z,5
2017-07-04T03:14:06.076Z,5
2017-07-04T03:15:05.831Z,10
2017-07-04T03:16:06.079Z,10
2017-07-04T03:17:05.730Z,10
2017-07-04T03:18:05.666Z,10
2017-07-04T03:19:05.348Z,10
2017-07-04T03:20:05.797Z,10
2017-07-04T03:21:06.081Z,10
2017-07-04T03:22:06.046Z,10
2017-07-04T03:23:06.314Z,10
2017-07-04T03:24:06.636Z,15
2017-07-04T03:25:05.655Z,15
2017-07-04T03:26:05.304Z,15
2017-07-04T03:27:05.959Z,15
2017-07-04T03:28:05.623Z,15
2017-07-04T03:29:05.977Z,15
2017-07-04T03:30:05.650Z,10
2017-07-04T03:31:06.269Z,10
2017-07-04T03:32:05.308Z,10
2017-07-04T03:33:05.632Z,10
2017-07-04T03:34:06.287Z,10
2017-07-04T03:35:05.262Z,10
2017-07-04T03:36:05.596Z,10
2017-07-04T03:37:05.585Z,10
2017-07-04T03:38:05.909Z,10
2017-07-04T03:39:05.251Z,10
2017-07-04T03:40:06.230Z,15
2017-07-04T03:41:06.245Z,15
2017-07-04T03:42:05.564Z,20
2017-07-04T03:43:05.570Z,25
2017-07-04T03:44:05.226Z,30
2017-07-04T03:45:05.552Z,30
2017-07-04T03:46:05.550Z,35
2017-07-04T03:47:05.213Z,40
2017-07-04T03:48:05.259Z,45
2017-07-04T03:49:06.965Z,45
2017-07-04T03:50:05.878Z,40
2017-07-04T03:51:06.013Z,40
2017-07-04T03:52:05.847Z,40
2017-07-04T03:53:05.545Z,40
2017-07-04T03:54:05.818Z,40
2017-07-04T03:55:05.835Z,35
2017-07-04T03:56:05.827Z,35
2017-07-04T03:57:05.514Z,30
2017-07-04T03:58:05.528Z,30
2017-07-04T03:59:05.855Z,35
2017-07-04T04:00:05.517Z,35
2017-07-04T04:01:05.476Z,35
2017-07-04T04:02:05.507Z,35
2017-07-04T04:03:06.157Z,35
2017-07-04T04:04:05.795Z,35
2017-07-04T04:05:05.459Z,30
2017-07-04T04:06:05.140Z,25
2017-07-04T04:07:05.155Z,20
2017-07-04T04:08:05.445Z,20
2017-07-04T04:09:05.168Z,20
2017-07-04T04:10:05.130Z,20
2017-07-04T04:11:05.453Z,25
2017-07-04T04:12:05.451Z,25
2017-07-04T04:13:05.434Z,25
2017-07-04T04:14:05.421Z,25
2017-07-04T04:15:05.426Z,25
2017-07-04T04:16:06.430Z,25
2017-07-04T04:17:05.438Z,25
2017-07-04T04:18:05.404Z,25
2017-07-04T04:19:05.092Z,30
2017-07-04T04:20:05.399Z,30
2017-07-04T04:21:05.402Z,35
2017-07-04T04:22:06.049Z,35
2017-07-04T04:23:05.713Z,35
2017-07-04T04:24:05.383Z,50
2017-07-04T04:25:05.050Z,70
2017-07-04T04:26:05.391Z,80
2017-07-04T04:27:06.018Z,90
2017-07-04T04:28:05.688Z,95
2017-07-04T04:29:05.362Z,90
2017-07-04T04:30:05.717Z,85
2017-07-04T04:31:05.686Z,75
2017-07-04T04:32:05.367Z,75
2017-07-04T04:33:05.669Z,70
2017-07-04T04:34:05.669Z,75
2017-07-04T04:35:05.665Z,90
2017-07-04T04:36:05.007Z,95
2017-07-04T04:37:05.984Z,80
2017-07-04T04:38:04.990Z,70
2017-07-04T04:39:05.668Z,60
2017-07-04T04:40:05.003Z,55
2017-07-04T04:41:05.638Z,50
2017-07-04T04:42:05.302Z,40
2017-07-04T04:43:05.655Z,35
2017-07-04T04:44:05.297Z,40
2017-07-04T04:45:05.303Z,45
2017-07-04T04:46:04.965Z,50
2017-07-04T04:47:04.979Z,50
2017-07-04T04:48:04.952Z,50
2017-07-04T04:49:05.610Z,60
2017-07-04T04:50:05.275Z,65
2017-07-04T04:51:05.267Z,70
2017-07-04T04:52:05.628Z,65
2017-07-04T04:53:04.935Z,65
2017-07-04T04:54:05.258Z,70
2017-07-04T04:55:05.583Z,80
2017-07-04T04:56:05.589Z,75
2017-07-04T04:57:05.271Z,70
2017-07-04T04:58:05.910Z,70
2017-07-04T04:59:05.256Z,70
2017-07-04T05:00:05.563Z,65
2017-07-04T05:01:05.591Z,70
2017-07-04T05:02:05.551Z,70
2017-07-04T05:03:04.896Z,70
2017-07-04T05:04:05.552Z,70
2017-07-04T05:05:05.872Z,70
2017-07-04T05:06:05.537Z,85
2017-07-04T05:07:04.881Z,100
2017-07-04T05:08:05.201Z,95
2017-07-04T05:09:05.195Z,90
2017-07-04T05:10:05.201Z,75
2017-07-04T05:11:05.247Z,70
2017-07-04T05:12:05.189Z,70
2017-07-04T05:13:05.182Z,60
2017-07-04T05:14:05.181Z,55
2017-07-04T05:15:05.175Z,50
2017-07-04T05:16:05.174Z,45
2017-07-04T05:17:05.182Z,50
2017-07-04T05:18:05.515Z,50
2017-07-04T05:19:05.491Z,55
2017-07-04T05:20:04.827Z,55
2017-07-04T05:21:05.155Z,60
2017-07-04T05:22:05.195Z,65
2017-07-04T05:23:05.477Z,70
2017-07-04T05:24:04.816Z,80
2017-07-04T05:25:05.468Z,80
2017-07-04T05:26:05.137Z,70
2017-07-04T05:27:05.458Z,65
2017-07-04T05:28:05.790Z,65
2017-07-04T05:29:05.129Z,65
2017-07-04T05:30:05.452Z,60
2017-07-04T05:31:05.149Z,60
2017-07-04T05:32:05.802Z,55
2017-07-04T05:33:05.771Z,55
2017-07-04T05:34:05.110Z,50
2017-07-04T05:35:05.759Z,50
2017-07-04T05:36:05.431Z,55
2017-07-04T05:37:05.455Z,70
2017-07-04T05:38:04.779Z,75
2017-07-04T05:39:05.084Z,70
2017-07-04T05:40:04.753Z,70
2017-07-04T05:41:05.408Z,70
2017-07-04T05:42:05.087Z,75
2017-07-04T05:43:05.071Z,80
2017-07-04T05:44:05.408Z,85
2017-07-04T05:45:06.044Z,95
2017-07-04T05:46:05.405Z,95
2017-07-04T05:47:05.384Z,85
2017-07-04T05:48:05.401Z,80
2017-07-04T05:49:05.072Z,75
2017-07-04T05:50:05.047Z,70
2017-07-04T05:51:04.714Z,75
2017-07-04T05:52:05.041Z,85
2017-07-04T05:53:05.053Z,80
2017-07-04T05:54:05.370Z,80
2017-07-04T05:55:04.701Z,95
2017-07-04T05:56:05.676Z,120
2017-07-04T05:57:05.345Z,120
2017-07-04T05:58:05.341Z,110
2017-07-04T05:59:05.036Z,105
2017-07-04T06:00:05.015Z,115
2017-07-04T06:01:05.005Z,130
2017-07-04T06:02:05.328Z,145
2017-07-04T06:03:04.666Z,150
2017-07-04T06:04:05.003Z,150
2017-07-04T06:05:04.990Z,155
2017-07-04T06:06:04.988Z,150
2017-07-04T06:07:05.642Z,150
2017-07-04T06:08:04.987Z,150
2017-07-04T06:09:05.957Z,150
2017-07-04T06:10:04.969Z,155
2017-07-04T06:11:04.961Z,165
2017-07-04T06:12:04.640Z,160
2017-07-04T06:13:05.291Z,160
2017-07-04T06:14:05.283Z,175
2017-07-04T06:15:05.626Z,180
2017-07-04T06:16:04.621Z,180
2017-07-04T06:17:05.623Z,180
2017-07-04T06:18:05.297Z,185
2017-07-04T06:19:05.268Z,195
2017-07-04T06:20:05.273Z,190
2017-07-04T06:21:05.263Z,195
2017-07-04T06:22:05.590Z,210
2017-07-04T06:23:04.610Z,240
2017-07-04T06:24:04.919Z,265
2017-07-04T06:25:04.936Z,260
2017-07-04T06:26:04.931Z,235
2017-07-04T06:27:05.241Z,220
2017-07-04T06:28:05.251Z,225
2017-07-04T06:29:04.917Z,235
2017-07-04T06:30:04.587Z,275
2017-07-04T06:31:05.229Z,320
2017-07-04T06:32:05.223Z,325
2017-07-04T06:33:05.221Z,330
2017-07-04T06:34:04.891Z,265
2017-07-04T06:35:05.214Z,260
2017-07-04T06:36:04.905Z,270
2017-07-04T06:37:04.880Z,295
2017-07-04T06:38:04.555Z,315
2017-07-04T06:39:04.896Z,305
2017-07-04T06:40:04.547Z,285
2017-07-04T06:41:04.875Z,260
2017-07-04T06:42:04.880Z,265
2017-07-04T06:43:05.191Z,275
2017-07-04T06:44:04.863Z,285
2017-07-04T06:45:04.873Z,265
2017-07-04T06:46:04.863Z,250
2017-07-04T06:47:05.186Z,240
2017-07-04T06:48:04.850Z,225
2017-07-04T06:49:04.870Z,240
2017-07-04T06:50:05.201Z,275
2017-07-04T06:51:04.846Z,285
2017-07-04T06:52:04.537Z,270
2017-07-04T06:53:04.526Z,255
2017-07-04T06:54:04.515Z,245
2017-07-04T06:55:05.164Z,225
2017-07-04T06:56:04.837Z,215
2017-07-04T06:57:04.837Z,230
2017-07-04T06:58:05.159Z,255
2017-07-04T06:59:04.828Z,290
2017-07-04T07:00:05.156Z,300
2017-07-04T07:01:04.833Z,310
2017-07-04T07:02:05.161Z,325
2017-07-04T07:03:05.154Z,355
2017-07-04T07:04:04.491Z,355
2017-07-04T07:05:05.162Z,425
2017-07-04T07:06:04.825Z,455
2017-07-04T07:07:04.826Z,500
2017-07-04T07:08:04.810Z,490
2017-07-04T07:09:05.481Z,485
2017-07-04T07:10:04.806Z,480
2017-07-04T07:11:04.803Z,435
2017-07-04T07:12:04.490Z,410
2017-07-04T07:13:05.142Z,405
2017-07-04T07:14:04.475Z,415
2017-07-04T07:15:04.469Z,400
2017-07-04T07:16:04.824Z,375
2017-07-04T07:17:04.797Z,390
2017-07-04T07:18:04.796Z,410
2017-07-04T07:19:05.123Z,460
2017-07-04T07:20:05.132Z,490
2017-07-04T07:21:05.480Z,475
2017-07-04T07:22:05.153Z,490
2017-07-04T07:23:05.445Z,495
2017-07-04T07:24:05.116Z,570
2017-07-04T07:25:04.798Z,505
2017-07-04T07:26:04.840Z,520
2017-07-04T07:27:04.477Z,580
2017-07-04T07:28:04.459Z,575
2017-07-04T07:29:05.114Z,545
2017-07-04T07:30:04.462Z,515
2017-07-04T07:31:05.442Z,505
2017-07-04T07:32:04.786Z,530
2017-07-04T07:33:05.109Z,545
2017-07-04T07:34:04.458Z,545
2017-07-04T07:35:04.795Z,590
2017-07-04T07:36:05.125Z,600
2017-07-04T07:37:04.472Z,575
2017-07-04T07:38:04.775Z,515
2017-07-04T07:39:04.771Z,480
2017-07-04T07:40:05.125Z,445
2017-07-04T07:41:04.447Z,430
2017-07-04T07:42:04.459Z,445
2017-07-04T07:43:04.787Z,475
2017-07-04T07:44:04.791Z,495
2017-07-04T07:45:04.789Z,540
2017-07-04T07:46:04.446Z,845
2017-07-04T07:47:05.125Z,775
2017-07-04T07:48:04.801Z,525
2017-07-04T07:49:04.466Z,510
2017-07-04T07:50:04.445Z,650
2017-07-04T07:51:05.433Z,820
2017-07-04T07:52:04.785Z,555
2017-07-04T07:53:04.786Z,495
2017-07-04T07:54:05.764Z,510
2017-07-04T07:55:04.456Z,515
2017-07-04T07:56:04.778Z,525
2017-07-04T07:57:04.802Z,545
2017-07-04T07:58:04.467Z,575
2017-07-04T07:59:04.456Z,565
2017-07-04T08:00:04.783Z,525
2017-07-04T08:01:04.467Z,445
2017-07-04T08:02:05.151Z,410
2017-07-04T08:03:04.508Z,405
2017-07-04T08:04:05.112Z,385
2017-07-04T08:05:05.445Z,365
2017-07-04T08:06:05.124Z,375
2017-07-04T08:07:04.793Z,445
2017-07-04T08:08:05.119Z,535
2017-07-04T08:09:04.793Z,560
2017-07-04T08:10:04.805Z,590
2017-07-04T08:11:05.130Z,545
2017-07-04T08:12:04.804Z,555
2017-07-04T08:13:04.465Z,525
2017-07-04T08:14:04.496Z,525
2017-07-04T08:15:04.792Z,510
2017-07-04T08:16:05.120Z,480
2017-07-04T08:17:05.128Z,475
2017-07-04T08:18:05.128Z,490
2017-07-04T08:19:05.132Z,520
2017-07-04T08:20:05.124Z,530
2017-07-04T08:21:05.163Z,545
2017-07-04T08:22:05.477Z,520
2017-07-04T08:23:04.795Z,500
2017-07-04T08:24:05.459Z,490
2017-07-04T08:25:04.802Z,470
2017-07-04T08:26:05.157Z,490
2017-07-04T08:27:05.164Z,535
2017-07-04T08:28:05.161Z,565
2017-07-04T08:29:05.459Z,585
2017-07-04T08:30:04.815Z,590
2017-07-04T08:31:04.818Z,595
2017-07-04T08:32:04.809Z,605
2017-07-04T08:33:05.478Z,605
2017-07-04T08:34:05.791Z,570
2017-07-04T08:35:04.484Z,560
2017-07-04T08:36:04.809Z,575
2017-07-04T08:37:05.155Z,550
2017-07-04T08:38:04.837Z,555
2017-07-04T08:39:04.822Z,570
2017-07-04T08:40:04.510Z,550
2017-07-04T08:41:05.162Z,500
2017-07-04T08:42:05.148Z,480
2017-07-04T08:43:04.820Z,465
2017-07-04T08:44:05.476Z,465
2017-07-04T08:45:05.159Z,465
2017-07-04T08:46:04.825Z,470
2017-07-04T08:47:04.832Z,480
2017-07-04T08:48:04.823Z,475
2017-07-04T08:49:05.481Z,480
2017-07-04T08:50:04.838Z,475
2017-07-04T08:51:04.519Z,465
2017-07-04T08:52:04.829Z,475
2017-07-04T08:53:04.832Z,485
2017-07-04T08:54:04.549Z,485
2017-07-04T08:55:04.507Z,470
2017-07-04T08:56:05.156Z,450
2017-07-04T08:57:04.838Z,430
2017-07-04T08:58:04.832Z,435
2017-07-04T08:59:05.487Z,445
2017-07-04T09:00:04.845Z,440
2017-07-04T09:01:04.841Z,485
2017-07-04T09:02:05.187Z,515
2017-07-04T09:03:05.219Z,520
2017-07-04T09:04:04.845Z,515
2017-07-04T09:05:05.501Z,525
2017-07-04T09:06:04.850Z,505
2017-07-04T09:07:05.541Z,475
2017-07-04T09:08:05.173Z,460
2017-07-04T09:09:04.848Z,485
2017-07-04T09:10:04.851Z,520
2017-07-04T09:11:04.851Z,555
2017-07-04T09:12:05.503Z,580
2017-07-04T09:13:04.855Z,530
2017-07-04T09:14:05.198Z,545
2017-07-04T09:15:04.552Z,570
2017-07-04T09:16:05.184Z,590
2017-07-04T09:17:04.533Z,575
2017-07-04T09:18:04.861Z,580
2017-07-04T09:19:04.536Z,605
2017-07-04T09:20:05.190Z,600
2017-07-04T09:21:04.875Z,610
2017-07-04T09:22:05.224Z,630
2017-07-04T09:23:04.878Z,655
2017-07-04T09:24:05.546Z,675
2017-07-04T09:25:05.207Z,680
2017-07-04T09:26:04.887Z,670
2017-07-04T09:27:05.202Z,605
2017-07-04T09:28:04.551Z,570
2017-07-04T09:29:05.216Z,560
2017-07-04T09:30:04.878Z,555
2017-07-04T09:31:05.224Z,580
2017-07-04T09:32:05.209Z,590
2017-07-04T09:33:05.211Z,620
2017-07-04T09:34:04.566Z,605
2017-07-04T09:35:05.214Z,590
2017-07-04T09:36:04.885Z,590
2017-07-04T09:37:04.585Z,570
2017-07-04T09:38:04.893Z,550
2017-07-04T09:39:05.581Z,540
2017-07-04T09:40:05.545Z,535
2017-07-04T09:41:05.551Z,515
2017-07-04T09:42:05.235Z,515
2017-07-04T09:43:04.902Z,490
2017-07-04T09:44:04.589Z,435
2017-07-04T09:45:05.230Z,400
2017-07-04T09:46:04.917Z,385
2017-07-04T09:47:04.948Z,410
2017-07-04T09:48:04.920Z,385
2017-07-04T09:49:05.565Z,365
2017-07-04T09:50:05.232Z,370
2017-07-04T09:51:04.916Z,375
2017-07-04T09:52:04.923Z,395
2017-07-04T09:53:04.930Z,430
2017-07-04T09:54:04.935Z,400
2017-07-04T09:55:05.261Z,355
2017-07-04T09:56:04.919Z,320
2017-07-04T09:57:05.263Z,350
2017-07-04T09:58:04.917Z,355
2017-07-04T09:59:04.938Z,395
2017-07-04T10:00:04.593Z,420
2017-07-04T10:01:04.924Z,395
2017-07-04T10:02:05.585Z,395
2017-07-04T10:03:04.939Z,425
2017-07-04T10:04:05.591Z,475
2017-07-04T10:05:04.612Z,485
2017-07-04T10:06:04.925Z,485
2017-07-04T10:07:04.620Z,435
2017-07-04T10:08:04.928Z,415
2017-07-04T10:09:05.586Z,410
2017-07-04T10:10:05.631Z,445
2017-07-04T10:11:04.935Z,465
2017-07-04T10:12:04.933Z,470
2017-07-04T10:13:05.266Z,485
2017-07-04T10:14:04.934Z,470
2017-07-04T10:15:05.268Z,405
2017-07-04T10:16:04.611Z,305
2017-07-04T10:17:04.614Z,295
2017-07-04T10:18:05.270Z,240
2017-07-04T10:19:05.276Z,190
2017-07-04T10:20:05.611Z,150
2017-07-04T10:21:04.950Z,145
2017-07-04T10:22:05.284Z,155
2017-07-04T10:23:04.625Z,160
2017-07-04T10:24:04.950Z,175
2017-07-04T10:25:04.956Z,185
2017-07-04T10:26:04.956Z,185
2017-07-04T10:27:04.958Z,200
2017-07-04T10:28:05.295Z,220
2017-07-04T10:29:04.629Z,240
2017-07-04T10:30:05.287Z,245
2017-07-04T10:31:04.632Z,240
2017-07-04T10:32:04.981Z,260
2017-07-04T10:33:04.961Z,250
2017-07-04T10:34:04.964Z,240
2017-07-04T10:35:04.658Z,235
2017-07-04T10:36:04.638Z,230
2017-07-04T10:37:05.637Z,230
2017-07-04T10:38:05.302Z,230
2017-07-04T10:39:04.970Z,230
2017-07-04T10:40:05.294Z,235
2017-07-04T10:41:05.342Z,240
2017-07-04T10:42:04.641Z,245
2017-07-04T10:43:04.992Z,260
2017-07-04T10:44:04.657Z,295
2017-07-04T10:45:04.659Z,320
2017-07-04T10:46:04.972Z,335
2017-07-04T10:47:05.295Z,325
2017-07-04T10:48:05.311Z,320
2017-07-04T10:49:04.647Z,320
2017-07-04T10:50:04.645Z,325
2017-07-04T10:51:05.310Z,350
2017-07-04T10:52:05.304Z,375
2017-07-04T10:53:05.022Z,390
2017-07-04T10:54:04.985Z,405
2017-07-04T10:55:04.652Z,385
2017-07-04T10:56:04.982Z,380
2017-07-04T10:57:04.654Z,360
2017-07-04T10:58:04.660Z,370
2017-07-04T10:59:04.982Z,400
2017-07-04T11:00:04.680Z,380
2017-07-04T11:01:04.660Z,405
2017-07-04T11:02:04.989Z,420
2017-07-04T11:03:05.382Z,425
2017-07-04T11:04:04.989Z,410
2017-07-04T11:05:04.991Z,390
2017-07-04T11:06:04.677Z,385
2017-07-04T11:07:04.685Z,275
2017-07-04T11:08:04.696Z,220
2017-07-04T11:09:05.677Z,200
2017-07-04T11:10:04.672Z,210
2017-07-04T11:11:05.006Z,240
2017-07-04T11:12:05.656Z,280
2017-07-04T11:13:04.679Z,320
2017-07-04T11:14:05.357Z,375
2017-07-04T11:15:05.664Z,390
2017-07-04T11:16:05.662Z,430
2017-07-04T11:17:05.009Z,445
2017-07-04T11:18:04.680Z,400
2017-07-04T11:19:05.673Z,380
2017-07-04T11:20:05.013Z,350
2017-07-04T11:21:04.687Z,310
2017-07-04T11:22:05.665Z,255
2017-07-04T11:23:05.345Z,200
2017-07-04T11:24:05.016Z,165
2017-07-04T11:25:05.025Z,130
2017-07-04T11:26:05.361Z,110
2017-07-04T11:27:04.692Z,105
2017-07-04T11:28:05.030Z,110
2017-07-04T11:29:05.363Z,115
2017-07-04T11:30:05.028Z,125
2017-07-04T11:31:05.045Z,150
2017-07-04T11:32:05.683Z,190
2017-07-04T11:33:05.354Z,215
2017-07-04T11:34:05.027Z,240
2017-07-04T11:35:04.703Z,255
2017-07-04T11:36:05.681Z,270
2017-07-04T11:37:04.718Z,285
2017-07-04T11:38:05.359Z,300
2017-07-04T11:39:06.038Z,305
2017-07-04T11:40:05.405Z,310
2017-07-04T11:41:05.036Z,295
2017-07-04T11:42:04.729Z,295
2017-07-04T11:43:05.363Z,305
2017-07-04T11:44:04.702Z,325
2017-07-04T11:45:05.356Z,350
2017-07-04T11:46:05.687Z,385
2017-07-04T11:47:05.032Z,415
2017-07-04T11:48:05.057Z,455
2017-07-04T11:49:05.108Z,475
2017-07-04T11:50:05.037Z,475
2017-07-04T11:51:05.364Z,465
2017-07-04T11:52:05.033Z,445
2017-07-04T11:53:04.709Z,430
2017-07-04T11:54:05.367Z,425
2017-07-04T11:55:05.394Z,400
2017-07-04T11:56:05.373Z,375
2017-07-04T11:57:05.044Z,360
2017-07-04T11:58:05.058Z,370
2017-07-04T11:59:04.714Z,400
2017-07-04T12:00:05.717Z,430
2017-07-04T12:01:05.053Z,455
2017-07-04T12:02:06.022Z,475
2017-07-04T12:03:04.733Z,470
2017-07-04T12:04:05.374Z,455
2017-07-04T12:05:05.050Z,440
2017-07-04T12:06:05.383Z,410
2017-07-04T12:07:05.091Z,405
2017-07-04T12:08:05.400Z,425
2017-07-04T12:09:05.378Z,470
2017-07-04T12:10:04.722Z,535
2017-07-04T12:11:05.378Z,585
2017-07-04T12:12:04.727Z,600
2017-07-04T12:13:05.047Z,595
2017-07-04T12:14:05.715Z,585
2017-07-04T12:15:05.057Z,560
2017-07-04T12:16:05.381Z,540
2017-07-04T12:17:05.716Z,525
2017-07-04T12:18:04.733Z,520
2017-07-04T12:19:04.748Z,535
2017-07-04T12:20:05.125Z,555
2017-07-04T12:21:05.090Z,570
2017-07-04T12:22:05.719Z,580
2017-07-04T12:23:05.107Z,560
2017-07-04T12:24:04.750Z,550
2017-07-04T12:25:05.070Z,540
2017-07-04T12:26:04.772Z,545
2017-07-04T12:27:05.071Z,545
2017-07-04T12:28:04.749Z,540
2017-07-04T12:29:05.077Z,520
2017-07-04T12:30:04.800Z,500
2017-07-04T12:31:05.431Z,475
2017-07-04T12:32:04.757Z,450
2017-07-04T12:33:05.768Z,435
2017-07-04T12:34:05.092Z,430
2017-07-04T12:35:05.749Z,440
2017-07-04T12:36:05.121Z,440
2017-07-04T12:37:05.094Z,415
2017-07-04T12:38:05.125Z,385
2017-07-04T12:39:05.426Z,365
2017-07-04T12:40:05.429Z,370
2017-07-04T12:41:05.433Z,365
2017-07-04T12:42:04.772Z,370
2017-07-04T12:43:05.455Z,375
2017-07-04T12:44:05.118Z,390
2017-07-04T12:45:05.456Z,390
2017-07-04T12:46:04.782Z,370
2017-07-04T12:47:05.437Z,345
2017-07-04T12:48:05.113Z,330
2017-07-04T12:49:05.442Z,320
2017-07-04T12:50:05.116Z,320
2017-07-04T12:51:04.816Z,335
2017-07-04T12:52:04.815Z,335
2017-07-04T12:53:05.124Z,325
2017-07-04T12:54:05.119Z,310
2017-07-04T12:55:05.464Z,290
2017-07-04T12:56:05.451Z,270
2017-07-04T12:57:05.792Z,240
2017-07-04T12:58:05.162Z,220
2017-07-04T12:59:05.128Z,205
2017-07-04T13:00:04.803Z,195
2017-07-04T13:01:05.470Z,185
2017-07-04T13:02:04.816Z,170
2017-07-04T13:03:04.811Z,160
2017-07-04T13:04:04.804Z,145
2017-07-04T13:05:04.809Z,140
2017-07-04T13:06:04.808Z,135
2017-07-04T13:07:05.139Z,135
2017-07-04T13:08:05.493Z,145
2017-07-04T13:09:05.139Z,150
2017-07-04T13:10:04.815Z,165
2017-07-04T13:11:04.822Z,180
2017-07-04T13:12:04.820Z,210
2017-07-04T13:13:05.806Z,255
2017-07-04T13:14:05.488Z,325
2017-07-04T13:15:05.149Z,390
2017-07-04T13:16:05.809Z,450
2017-07-04T13:17:05.481Z,500
2017-07-04T13:18:05.474Z,545
2017-07-04T13:19:05.146Z,570
2017-07-04T13:20:05.152Z,590
2017-07-04T13:21:05.477Z,590
2017-07-04T13:22:04.820Z,580
2017-07-04T13:23:05.145Z,570
2017-07-04T13:24:04.833Z,570
2017-07-04T13:25:05.152Z,560
2017-07-04T13:26:05.805Z,530
2017-07-04T13:27:05.809Z,500
2017-07-04T13:28:05.491Z,470
2017-07-04T13:29:05.514Z,450
2017-07-04T13:30:05.157Z,455
2017-07-04T13:31:04.843Z,435
2017-07-04T13:32:05.490Z,425
2017-07-04T13:33:05.174Z,420
2017-07-04T13:34:05.503Z,435
2017-07-04T13:35:05.175Z,465
2017-07-04T13:36:05.489Z,485
2017-07-04T13:37:04.833Z,465
2017-07-04T13:38:04.839Z,415
2017-07-04T13:39:04.847Z,360
2017-07-04T13:40:05.171Z,310
2017-07-04T13:41:04.844Z,280
2017-07-04T13:42:05.499Z,265
2017-07-04T13:43:05.508Z,265
2017-07-04T13:44:05.172Z,265
2017-07-04T13:45:04.853Z,240
2017-07-04T13:46:05.198Z,225
2017-07-04T13:47:05.876Z,190
2017-07-04T13:48:05.179Z,185
2017-07-04T13:49:05.512Z,165
2017-07-04T13:50:05.516Z,155
2017-07-04T13:51:05.854Z,150
2017-07-04T13:52:05.863Z,145
2017-07-04T13:53:05.515Z,150
2017-07-04T13:54:05.534Z,155
2017-07-04T13:55:04.863Z,150
2017-07-04T13:56:05.518Z,145
2017-07-04T13:57:05.846Z,140
2017-07-04T13:58:04.867Z,130
2017-07-04T13:59:05.194Z,120
2017-07-04T14:00:05.192Z,105
2017-07-04T14:01:04.881Z,95
2017-07-04T14:02:05.195Z,90
2017-07-04T14:03:05.195Z,85
2017-07-04T14:04:06.187Z,100
2017-07-04T14:05:05.551Z,125